createdAt,value
2019-01-08T00:00:34.585Z,4.85
2019-01-08T00:01:34.571Z,4.85
2019-01-08T00:02:34.559Z,4.80
2019-01-08T00:03:34.549Z,4.82
2019-01-08T00:04:34.540Z,4.78
2019-01-08T00:05:34.610Z,4.78
2019-01-08T00:06:34.518Z,4.82
2019-01-08T00:07:34.508Z,4.86
2019-01-08T00:08:34.497Z,4.89
2019-01-08T00:09:34.486Z,4.89
2019-01-08T00:10:34.475Z,4.85
2019-01-08T00:11:34.467Z,4.91
2019-01-08T00:12:34.451Z,4.86
2019-01-08T00:13:34.447Z,4.88
2019-01-08T00:14:34.434Z,4.92
2019-01-08T00:15:34.423Z,4.89
2019-01-08T00:16:34.410Z,4.86
2019-01-08T00:17:34.400Z,4.96
2019-01-08T00:18:34.390Z,4.84
2019-01-08T00:19:34.379Z,4.88
2019-01-08T00:20:34.366Z,4.86
2019-01-08T00:21:34.357Z,4.84
2019-01-08T00:22:34.345Z,4.84
2019-01-08T00:23:34.337Z,4.86
2019-01-08T00:24:34.326Z,4.85
2019-01-08T00:25:34.313Z,4.86
2019-01-08T00:26:34.305Z,4.89
2019-01-08T00:27:34.293Z,4.82
2019-01-08T00:28:34.282Z,4.88
2019-01-08T00:29:34.280Z,4.91
2019-01-08T00:30:34.260Z,4.89
2019-01-08T00:31:34.250Z,4.86
2019-01-08T00:32:34.238Z,4.84
2019-01-08T00:33:34.235Z,4.86
2019-01-08T00:34:34.218Z,4.84
2019-01-08T00:35:34.208Z,4.80
2019-01-08T00:36:34.195Z,4.78
2019-01-08T00:37:34.186Z,4.82
2019-01-08T00:38:34.176Z,4.80
2019-01-08T00:39:34.165Z,4.86
2019-01-08T00:40:34.153Z,4.82
2019-01-08T00:41:34.144Z,4.84
2019-01-08T00:42:34.135Z,4.84
2019-01-08T00:43:34.127Z,4.88
2019-01-08T00:44:34.112Z,4.89
2019-01-08T00:45:34.098Z,4.86
2019-01-08T00:46:34.088Z,4.82
2019-01-08T00:47:34.155Z,4.80
2019-01-08T00:48:34.067Z,4.88
2019-01-08T00:49:34.057Z,4.86
2019-01-08T00:50:34.045Z,4.85
2019-01-08T00:51:34.037Z,4.85
2019-01-08T00:52:34.030Z,4.86
2019-01-08T00:53:34.018Z,4.86
2019-01-08T00:54:34.005Z,4.88
2019-01-08T00:55:33.991Z,4.75
2019-01-08T00:56:33.985Z,4.75
2019-01-08T00:57:33.974Z,4.77
2019-01-08T00:58:33.961Z,4.77
2019-01-08T00:59:33.951Z,4.86
2019-01-08T01:00:33.940Z,4.82
2019-01-08T01:01:33.928Z,4.85
2019-01-08T01:02:33.920Z,4.84
2019-01-08T01:03:33.912Z,4.82
2019-01-08T01:04:33.898Z,4.82
2019-01-08T01:05:33.888Z,4.86
2019-01-08T01:06:33.880Z,4.82
2019-01-08T01:07:33.864Z,4.86
2019-01-08T01:08:33.860Z,4.86
2019-01-08T01:09:33.842Z,4.85
2019-01-08T01:10:33.832Z,4.88
2019-01-08T01:11:33.820Z,4.85
2019-01-08T01:12:33.811Z,4.78
2019-01-08T01:13:33.807Z,4.82
2019-01-08T01:14:33.788Z,4.86
2019-01-08T01:15:33.780Z,4.80
2019-01-08T01:16:33.768Z,4.84
2019-01-08T01:17:33.757Z,4.85
2019-01-08T01:18:33.747Z,4.80
2019-01-08T01:19:33.735Z,4.82
2019-01-08T01:20:33.728Z,4.88
2019-01-08T01:21:33.717Z,4.85
2019-01-08T01:22:33.704Z,4.80
2019-01-08T01:23:33.695Z,4.85
2019-01-08T01:24:33.682Z,4.84
2019-01-08T01:25:33.672Z,4.84
2019-01-08T01:26:33.659Z,4.91
2019-01-08T01:27:33.652Z,4.86
2019-01-08T01:28:33.638Z,4.84
2019-01-08T01:29:33.631Z,4.89
2019-01-08T01:30:33.621Z,4.89
2019-01-08T01:31:33.656Z,4.91
2019-01-08T01:32:33.599Z,4.89
2019-01-08T01:33:33.592Z,4.91
2019-01-08T01:34:33.577Z,4.92
2019-01-08T01:35:33.564Z,4.94
2019-01-08T01:36:33.554Z,4.94
2019-01-08T01:37:33.542Z,4.86
2019-01-08T01:38:33.532Z,4.86
2019-01-08T01:39:33.522Z,4.86
2019-01-08T01:40:33.511Z,4.89
2019-01-08T01:41:33.500Z,4.84
2019-01-08T01:42:33.493Z,4.82
2019-01-08T01:43:33.480Z,4.84
2019-01-08T01:44:33.468Z,4.89
2019-01-08T01:45:33.458Z,4.89
2019-01-08T01:46:33.450Z,4.88
2019-01-08T01:47:33.438Z,4.91
2019-01-08T01:48:33.427Z,4.89
2019-01-08T01:49:33.414Z,4.96
2019-01-08T01:50:33.404Z,4.96
2019-01-08T01:51:33.394Z,4.86
2019-01-08T01:52:33.382Z,4.91
2019-01-08T01:53:33.374Z,4.86
2019-01-08T01:54:33.361Z,4.89
2019-01-08T01:55:33.352Z,4.96
2019-01-08T01:56:33.339Z,4.91
2019-01-08T01:57:33.330Z,4.92
2019-01-08T01:58:33.319Z,4.91
2019-01-08T01:59:33.306Z,4.94
2019-01-08T02:00:33.296Z,4.97
2019-01-08T02:01:33.287Z,4.96
2019-01-08T02:02:33.275Z,5.04
2019-01-08T02:03:33.274Z,4.96
2019-01-08T02:04:33.254Z,5.03
2019-01-08T02:05:33.245Z,5.00
2019-01-08T02:06:33.284Z,4.99
2019-01-08T02:07:33.222Z,4.89
2019-01-08T02:08:33.211Z,4.94
2019-01-08T02:09:33.201Z,4.99
2019-01-08T02:10:33.190Z,4.92
2019-01-08T02:11:33.179Z,4.97
2019-01-08T02:12:33.169Z,4.96
2019-01-08T02:13:33.162Z,4.94
2019-01-08T02:14:33.148Z,5.02
2019-01-08T02:15:33.136Z,4.96
2019-01-08T02:16:33.126Z,5.03
2019-01-08T02:17:33.116Z,4.96
2019-01-08T02:18:33.105Z,4.99
2019-01-08T02:19:33.096Z,4.99
2019-01-08T02:20:33.082Z,4.96
2019-01-08T02:21:33.074Z,4.88
2019-01-08T02:22:33.062Z,5.02
2019-01-08T02:23:33.055Z,4.96
2019-01-08T02:24:33.043Z,5.04
2019-01-08T02:25:33.030Z,4.99
2019-01-08T02:26:33.019Z,4.92
2019-01-08T02:27:33.011Z,4.96
2019-01-08T02:28:33.001Z,4.97
2019-01-08T02:29:32.988Z,4.92
2019-01-08T02:30:32.980Z,5.03
2019-01-08T02:31:32.967Z,4.96
2019-01-08T02:32:32.958Z,4.94
2019-01-08T02:33:32.951Z,5.00
2019-01-08T02:34:32.936Z,4.97
2019-01-08T02:35:32.929Z,5.04
2019-01-08T02:36:32.912Z,4.99
2019-01-08T02:37:32.904Z,5.00
2019-01-08T02:38:32.892Z,5.04
2019-01-08T02:39:32.879Z,5.00
2019-01-08T02:40:32.869Z,4.94
2019-01-08T02:41:33.058Z,4.94
2019-01-08T02:42:32.847Z,4.96
2019-01-08T02:43:32.840Z,4.97
2019-01-08T02:44:32.872Z,5.03
2019-01-08T02:45:32.815Z,4.97
2019-01-08T02:46:32.825Z,4.99
2019-01-08T02:47:32.794Z,5.03
2019-01-08T02:48:32.784Z,5.06
2019-01-08T02:49:32.778Z,4.94
2019-01-08T02:50:32.761Z,4.96
2019-01-08T02:51:32.755Z,4.97
2019-01-08T02:52:32.739Z,4.99
2019-01-08T02:53:32.731Z,5.03
2019-01-08T02:54:32.733Z,5.06
2019-01-08T02:55:32.710Z,5.03
2019-01-08T02:56:32.702Z,5.04
2019-01-08T02:57:32.687Z,5.20
2019-01-08T02:58:32.677Z,5.17
2019-01-08T02:59:32.667Z,5.22
2019-01-08T03:00:32.655Z,5.17
2019-01-08T03:01:32.645Z,5.13
2019-01-08T03:02:32.635Z,5.15
2019-01-08T03:03:32.627Z,5.27
2019-01-08T03:04:32.612Z,5.30
2019-01-08T03:05:32.603Z,5.33
2019-01-08T03:06:32.592Z,5.24
2019-01-08T03:07:32.678Z,5.25
2019-01-08T03:08:32.568Z,5.27
2019-01-08T03:09:32.557Z,5.28
2019-01-08T03:10:32.548Z,5.24
2019-01-08T03:11:32.537Z,5.28
2019-01-08T03:12:32.527Z,5.24
2019-01-08T03:13:32.515Z,5.28
2019-01-08T03:14:32.503Z,5.21
2019-01-08T03:15:32.494Z,5.35
2019-01-08T03:16:32.485Z,5.25
2019-01-08T03:17:32.473Z,5.17
2019-01-08T03:18:32.463Z,5.27
2019-01-08T03:19:32.453Z,5.35
2019-01-08T03:20:32.439Z,5.24
2019-01-08T03:21:32.431Z,5.38
2019-01-08T03:22:32.419Z,5.22
2019-01-08T03:23:32.414Z,5.22
2019-01-08T03:24:32.396Z,5.28
2019-01-08T03:25:32.387Z,5.28
2019-01-08T03:26:32.378Z,5.39
2019-01-08T03:27:32.367Z,5.25
2019-01-08T03:28:32.355Z,5.27
2019-01-08T03:29:33.627Z,5.31
2019-01-08T03:30:32.334Z,5.28
2019-01-08T03:31:32.332Z,5.36
2019-01-08T03:32:32.313Z,5.40
2019-01-08T03:33:32.304Z,5.28
2019-01-08T03:34:32.291Z,5.35
2019-01-08T03:35:32.280Z,5.33
2019-01-08T03:36:32.278Z,5.35
2019-01-08T03:37:32.259Z,5.36
2019-01-08T03:38:32.246Z,5.33
2019-01-08T03:39:32.238Z,5.42
2019-01-08T03:40:32.228Z,5.33
2019-01-08T03:41:32.215Z,5.43
2019-01-08T03:42:32.210Z,5.38
2019-01-08T03:43:32.196Z,5.35
2019-01-08T03:44:32.183Z,5.38
2019-01-08T03:45:32.173Z,5.39
2019-01-08T03:46:32.161Z,5.43
2019-01-08T03:47:32.152Z,5.43
2019-01-08T03:48:32.142Z,5.36
2019-01-08T03:49:32.131Z,5.42
2019-01-08T03:50:32.119Z,5.38
2019-01-08T03:51:32.109Z,5.48
2019-01-08T03:52:32.097Z,5.45
2019-01-08T03:53:33.275Z,5.45
2019-01-08T03:54:32.081Z,5.43
2019-01-08T03:55:32.066Z,5.45
2019-01-08T03:56:32.055Z,5.46
2019-01-08T03:57:32.047Z,5.36
2019-01-08T03:58:32.032Z,5.43
2019-01-08T03:59:32.023Z,5.40
2019-01-08T04:00:32.012Z,5.43
2019-01-08T04:01:32.000Z,5.43
2019-01-08T04:02:31.991Z,5.27
2019-01-08T04:03:31.985Z,5.24
2019-01-08T04:04:31.974Z,5.27
2019-01-08T04:05:31.961Z,5.12
2019-01-08T04:06:31.953Z,5.18
2019-01-08T04:07:31.935Z,5.20
2019-01-08T04:08:31.925Z,5.21
2019-01-08T04:09:31.915Z,5.18
2019-01-08T04:10:31.903Z,5.10
2019-01-08T04:11:31.899Z,5.17
2019-01-08T04:12:31.884Z,5.21
2019-01-08T04:13:31.878Z,5.25
2019-01-08T04:14:31.863Z,5.13
2019-01-08T04:15:31.852Z,5.17
2019-01-08T04:16:31.849Z,5.13
2019-01-08T04:17:31.830Z,5.17
2019-01-08T04:18:31.820Z,5.07
2019-01-08T04:19:31.811Z,5.15
2019-01-08T04:20:31.800Z,5.03
2019-01-08T04:21:31.791Z,5.07
2019-01-08T04:22:31.778Z,5.06
2019-01-08T04:23:31.776Z,5.06
2019-01-08T04:24:31.757Z,5.07
2019-01-08T04:25:31.743Z,5.12
2019-01-08T04:26:31.738Z,5.10
2019-01-08T04:27:31.724Z,5.15
2019-01-08T04:28:31.719Z,5.07
2019-01-08T04:29:31.703Z,5.06
2019-01-08T04:30:31.694Z,5.13
2019-01-08T04:31:31.678Z,5.12
2019-01-08T04:32:31.670Z,5.10
2019-01-08T04:33:31.666Z,5.09
2019-01-08T04:34:31.650Z,5.12
2019-01-08T04:35:31.637Z,5.18
2019-01-08T04:36:31.625Z,5.04
2019-01-08T04:37:31.616Z,5.07
2019-01-08T04:38:31.609Z,5.15
2019-01-08T04:39:31.596Z,5.17
2019-01-08T04:40:31.585Z,5.07
2019-01-08T04:41:31.577Z,5.30
2019-01-08T04:42:31.567Z,5.22
2019-01-08T04:43:31.562Z,5.15
2019-01-08T04:44:31.542Z,5.18
2019-01-08T04:45:31.529Z,5.07
2019-01-08T04:46:31.519Z,5.04
2019-01-08T04:47:31.512Z,5.15
2019-01-08T04:48:31.499Z,5.09
2019-01-08T04:49:31.490Z,5.10
2019-01-08T04:50:31.474Z,5.09
2019-01-08T04:51:31.464Z,5.06
2019-01-08T04:52:31.455Z,5.02
2019-01-08T04:53:31.449Z,5.02
2019-01-08T04:54:31.439Z,4.96
2019-01-08T04:55:31.421Z,4.97
2019-01-08T04:56:31.414Z,5.04
2019-01-08T04:57:31.402Z,4.99
2019-01-08T04:58:31.392Z,4.94
2019-01-08T04:59:31.391Z,5.02
2019-01-08T05:00:31.367Z,4.92
2019-01-08T05:01:31.358Z,4.89
2019-01-08T05:02:31.346Z,4.94
2019-01-08T05:03:31.341Z,4.94
2019-01-08T05:04:31.326Z,4.88
2019-01-08T05:05:31.315Z,4.85
2019-01-08T05:06:31.309Z,4.75
2019-01-08T05:07:31.294Z,4.88
2019-01-08T05:08:31.288Z,4.89
2019-01-08T05:09:31.279Z,4.84
2019-01-08T05:10:31.261Z,4.89
2019-01-08T05:11:31.259Z,4.82
2019-01-08T05:12:31.241Z,4.86
2019-01-08T05:13:31.233Z,4.88
2019-01-08T05:14:31.220Z,4.92
2019-01-08T05:15:31.214Z,4.89
2019-01-08T05:16:31.196Z,4.92
2019-01-08T05:17:31.192Z,4.92
2019-01-08T05:18:31.181Z,4.89
2019-01-08T05:19:31.167Z,4.97
2019-01-08T05:20:31.192Z,4.97
2019-01-08T05:21:31.147Z,4.97
2019-01-08T05:22:31.133Z,4.96
2019-01-08T05:23:31.125Z,5.00
2019-01-08T05:24:31.114Z,4.96
2019-01-08T05:25:31.102Z,4.86
2019-01-08T05:26:31.093Z,4.89
2019-01-08T05:27:31.083Z,4.84
2019-01-08T05:28:31.075Z,4.86
2019-01-08T05:29:31.065Z,4.97
2019-01-08T05:30:31.049Z,4.99
2019-01-08T05:31:31.036Z,5.00
2019-01-08T05:32:31.026Z,4.91
2019-01-08T05:33:31.020Z,4.94
2019-01-08T05:34:31.013Z,4.96
2019-01-08T05:35:30.995Z,4.94
2019-01-08T05:36:30.982Z,5.03
2019-01-08T05:37:30.977Z,4.96
2019-01-08T05:38:30.962Z,5.03
2019-01-08T05:39:30.957Z,5.09
2019-01-08T05:40:30.944Z,5.04
2019-01-08T05:41:30.931Z,5.07
2019-01-08T05:42:30.923Z,5.03
2019-01-08T05:43:30.916Z,5.15
2019-01-08T05:44:30.900Z,5.06
2019-01-08T05:45:30.887Z,5.10
2019-01-08T05:46:30.877Z,5.09
2019-01-08T05:47:30.869Z,5.09
2019-01-08T05:48:30.854Z,5.07
2019-01-08T05:49:30.845Z,5.13
2019-01-08T05:50:30.833Z,5.09
2019-01-08T05:51:30.822Z,5.09
2019-01-08T05:52:30.812Z,5.09
2019-01-08T05:53:30.806Z,5.09
2019-01-08T05:54:30.792Z,5.04
2019-01-08T05:55:30.783Z,5.07
2019-01-08T05:56:30.768Z,5.12
2019-01-08T05:57:30.756Z,5.04
2019-01-08T05:58:30.749Z,5.09
2019-01-08T05:59:30.747Z,5.17
2019-01-08T06:00:30.727Z,5.24
2019-01-08T06:01:30.716Z,5.22
2019-01-08T06:02:30.707Z,5.13
2019-01-08T06:03:30.700Z,5.13
2019-01-08T06:04:30.682Z,5.18
2019-01-08T06:05:30.677Z,5.20
2019-01-08T06:06:30.663Z,5.12
2019-01-08T06:07:30.651Z,5.12
2019-01-08T06:08:30.640Z,5.18
2019-01-08T06:09:30.631Z,5.18
2019-01-08T06:10:30.620Z,5.15
2019-01-08T06:11:30.609Z,5.15
2019-01-08T06:12:30.597Z,5.17
2019-01-08T06:13:30.588Z,5.27
2019-01-08T06:14:30.581Z,5.22
2019-01-08T06:15:30.575Z,5.31
2019-01-08T06:16:30.555Z,5.33
2019-01-08T06:17:30.542Z,5.31
2019-01-08T06:18:30.538Z,5.22
2019-01-08T06:19:30.522Z,5.21
2019-01-08T06:20:30.514Z,5.15
2019-01-08T06:21:30.502Z,5.21
2019-01-08T06:22:30.500Z,5.25
2019-01-08T06:23:30.492Z,5.21
2019-01-08T06:24:30.470Z,5.33
2019-01-08T06:25:30.458Z,5.30
2019-01-08T06:26:30.447Z,5.33
2019-01-08T06:27:30.436Z,5.38
2019-01-08T06:28:30.429Z,5.28
2019-01-08T06:29:30.415Z,5.33
2019-01-08T06:30:30.406Z,5.30
2019-01-08T06:31:30.395Z,5.35
2019-01-08T06:32:30.387Z,5.31
2019-01-08T06:33:30.377Z,5.24
2019-01-08T06:34:30.366Z,5.24
2019-01-08T06:35:30.353Z,5.22
2019-01-08T06:36:30.343Z,5.31
2019-01-08T06:37:30.350Z,5.22
2019-01-08T06:38:30.358Z,5.20
2019-01-08T06:39:30.314Z,5.15
2019-01-08T06:40:30.299Z,5.18
2019-01-08T06:41:30.289Z,5.13
2019-01-08T06:42:30.276Z,5.17
2019-01-08T06:43:30.269Z,5.18
2019-01-08T06:44:30.259Z,5.04
2019-01-08T06:45:30.245Z,5.10
2019-01-08T06:46:30.235Z,5.03
2019-01-08T06:47:30.370Z,5.02
2019-01-08T06:48:30.213Z,5.06
2019-01-08T06:49:30.204Z,5.15
2019-01-08T06:50:30.195Z,5.17
2019-01-08T06:51:30.187Z,5.18
2019-01-08T06:52:30.171Z,5.15
2019-01-08T06:53:30.161Z,5.21
2019-01-08T06:54:30.156Z,5.15
2019-01-08T06:55:30.141Z,5.18
2019-01-08T06:56:30.133Z,5.12
2019-01-08T06:57:30.119Z,5.15
2019-01-08T06:58:30.110Z,5.17
2019-01-08T06:59:30.098Z,5.13
2019-01-08T07:00:33.458Z,5.20
2019-01-08T07:01:30.073Z,5.24
2019-01-08T07:02:30.065Z,5.31
2019-01-08T07:03:30.056Z,5.20
2019-01-08T07:04:30.042Z,5.21
2019-01-08T07:05:30.036Z,5.21
2019-01-08T07:06:30.025Z,5.21
2019-01-08T07:07:30.012Z,5.33
2019-01-08T07:08:30.000Z,5.27
2019-01-08T07:09:29.989Z,5.31
2019-01-08T07:10:29.979Z,5.33
2019-01-08T07:11:29.974Z,5.33
2019-01-08T07:12:29.959Z,5.28
2019-01-08T07:13:29.945Z,5.36
2019-01-08T07:14:29.939Z,5.43
2019-01-08T07:15:29.928Z,5.42
2019-01-08T07:16:29.919Z,5.43
2019-01-08T07:17:29.912Z,5.36
2019-01-08T07:18:29.895Z,5.53
2019-01-08T07:19:29.881Z,5.43
2019-01-08T07:20:29.872Z,5.46
2019-01-08T07:21:29.860Z,5.39
2019-01-08T07:22:29.854Z,5.45
2019-01-08T07:23:29.843Z,5.36
2019-01-08T07:24:29.829Z,5.38
2019-01-08T07:25:29.820Z,5.45
2019-01-08T07:26:29.810Z,5.28
2019-01-08T07:27:29.803Z,5.35
2019-01-08T07:28:29.788Z,5.28
2019-01-08T07:29:29.777Z,5.36
2019-01-08T07:30:29.764Z,5.40
2019-01-08T07:31:29.754Z,5.33
2019-01-08T07:32:29.837Z,5.31
2019-01-08T07:33:29.738Z,5.31
2019-01-08T07:34:29.725Z,5.43
2019-01-08T07:35:29.711Z,5.42
2019-01-08T07:36:29.702Z,5.42
2019-01-08T07:37:29.694Z,5.45
2019-01-08T07:38:29.679Z,5.49
2019-01-08T07:39:29.670Z,5.57
2019-01-08T07:40:29.660Z,5.53
2019-01-08T07:41:29.648Z,5.54
2019-01-08T07:42:29.638Z,5.54
2019-01-08T07:43:29.632Z,5.61
2019-01-08T07:44:29.617Z,5.58
2019-01-08T07:45:29.604Z,5.57
2019-01-08T07:46:29.592Z,5.54
2019-01-08T07:47:29.584Z,5.49
2019-01-08T07:48:29.579Z,5.56
2019-01-08T07:49:29.564Z,5.49
2019-01-08T07:50:29.551Z,5.45
2019-01-08T07:51:29.541Z,5.43
2019-01-08T07:52:29.530Z,5.42
2019-01-08T07:53:29.921Z,5.40
2019-01-08T07:54:29.509Z,5.36
2019-01-08T07:55:29.505Z,5.25
2019-01-08T07:56:29.486Z,5.36
2019-01-08T07:57:29.475Z,5.25
2019-01-08T07:58:29.466Z,5.35
2019-01-08T07:59:29.532Z,5.27
2019-01-08T08:00:29.443Z,5.42
2019-01-08T08:01:29.435Z,5.43
2019-01-08T08:02:29.423Z,5.43
2019-01-08T08:03:29.416Z,5.43
2019-01-08T08:04:29.406Z,5.43
2019-01-08T08:05:29.393Z,5.45
2019-01-08T08:06:29.380Z,5.42
2019-01-08T08:07:29.370Z,5.48
2019-01-08T08:08:29.362Z,5.46
2019-01-08T08:09:29.350Z,5.39
2019-01-08T08:10:29.336Z,5.42
2019-01-08T08:11:29.326Z,5.45
2019-01-08T08:12:29.314Z,5.38
2019-01-08T08:13:29.309Z,5.33
2019-01-08T08:14:29.296Z,5.42
2019-01-08T08:15:29.284Z,5.40
2019-01-08T08:16:29.271Z,5.33
2019-01-08T08:17:29.273Z,5.36
2019-01-08T08:18:29.253Z,5.33
2019-01-08T08:19:29.242Z,5.31
2019-01-08T08:20:29.230Z,5.22
2019-01-08T08:21:29.222Z,5.27
2019-01-08T08:22:29.210Z,5.33
2019-01-08T08:23:29.204Z,5.27
2019-01-08T08:24:29.192Z,5.24
2019-01-08T08:25:29.177Z,5.22
2019-01-08T08:26:29.165Z,5.31
2019-01-08T08:27:29.155Z,5.22
2019-01-08T08:28:29.142Z,5.22
2019-01-08T08:29:29.134Z,5.25
2019-01-08T08:30:29.128Z,5.25
2019-01-08T08:31:29.113Z,5.22
2019-01-08T08:32:29.102Z,5.21
2019-01-08T08:33:29.102Z,5.18
2019-01-08T08:34:29.080Z,5.22
2019-01-08T08:35:29.073Z,5.24
2019-01-08T08:36:29.068Z,5.18
2019-01-08T08:37:29.052Z,5.15
2019-01-08T08:38:29.038Z,5.17
2019-01-08T08:39:29.026Z,5.13
2019-01-08T08:40:29.018Z,5.21
2019-01-08T08:41:29.007Z,5.03
2019-01-08T08:42:29.002Z,5.15
2019-01-08T08:43:28.992Z,5.07
2019-01-08T08:44:28.973Z,5.07
2019-01-08T08:45:28.962Z,5.09
2019-01-08T08:46:28.950Z,5.09
2019-01-08T08:47:28.940Z,5.09
2019-01-08T08:48:28.940Z,5.09
2019-01-08T08:49:28.920Z,5.03
2019-01-08T08:50:28.910Z,5.07
2019-01-08T08:51:28.903Z,5.10
2019-01-08T08:52:28.888Z,5.10
2019-01-08T08:53:29.285Z,5.10
2019-01-08T08:54:28.868Z,5.12
2019-01-08T08:55:28.855Z,5.09
2019-01-08T08:56:28.844Z,5.15
2019-01-08T08:57:28.841Z,5.18
2019-01-08T08:58:28.827Z,5.24
2019-01-08T08:59:28.815Z,5.25
2019-01-08T09:00:28.813Z,5.39
2019-01-08T09:01:28.792Z,5.40
2019-01-08T09:02:28.783Z,5.45
2019-01-08T09:03:28.775Z,5.40
2019-01-08T09:04:28.761Z,5.40
2019-01-08T09:05:28.749Z,5.46
2019-01-08T09:06:28.741Z,5.40
2019-01-08T09:07:28.729Z,5.39
2019-01-08T09:08:28.718Z,5.33
2019-01-08T09:09:28.709Z,5.31
2019-01-08T09:10:28.695Z,5.31
2019-01-08T09:11:28.688Z,5.36
2019-01-08T09:12:28.674Z,5.33
2019-01-08T09:13:28.672Z,5.27
2019-01-08T09:14:28.655Z,5.30
2019-01-08T09:15:28.643Z,5.28
2019-01-08T09:16:28.631Z,5.28
2019-01-08T09:17:28.621Z,5.28
2019-01-08T09:18:28.610Z,5.40
2019-01-08T09:19:28.602Z,5.36
2019-01-08T09:20:28.642Z,5.35
2019-01-08T09:21:28.586Z,5.31
2019-01-08T09:22:28.570Z,5.40
2019-01-08T09:23:28.561Z,5.33
2019-01-08T09:24:28.546Z,5.38
2019-01-08T09:25:28.536Z,5.49
2019-01-08T09:26:28.525Z,5.46
2019-01-08T09:27:28.515Z,5.53
2019-01-08T09:28:28.504Z,5.46
2019-01-08T09:29:28.491Z,5.46
2019-01-08T09:30:28.482Z,5.53
2019-01-08T09:31:28.469Z,5.43
2019-01-08T09:32:28.463Z,5.43
2019-01-08T09:33:28.520Z,5.45
2019-01-08T09:34:28.438Z,5.38
2019-01-08T09:35:28.427Z,5.45
2019-01-08T09:36:28.418Z,5.42
2019-01-08T09:37:28.408Z,5.36
2019-01-08T09:38:28.395Z,5.42
2019-01-08T09:39:28.386Z,5.28
2019-01-08T09:40:28.376Z,5.24
2019-01-08T09:41:28.365Z,5.27
2019-01-08T09:42:28.354Z,5.33
2019-01-08T09:43:28.345Z,5.25
2019-01-08T09:44:28.333Z,5.25
2019-01-08T09:45:28.321Z,5.31
2019-01-08T09:46:28.313Z,5.24
2019-01-08T09:47:28.300Z,5.27
2019-01-08T09:48:28.291Z,5.31
2019-01-08T09:49:28.281Z,5.40
2019-01-08T09:50:28.270Z,5.30
2019-01-08T09:51:28.259Z,5.33
2019-01-08T09:52:28.247Z,5.35
2019-01-08T09:53:29.461Z,5.30
2019-01-08T09:54:28.227Z,5.30
2019-01-08T09:55:28.215Z,5.33
2019-01-08T09:56:28.253Z,5.39
2019-01-08T09:57:28.195Z,5.38
2019-01-08T09:58:28.186Z,5.40
2019-01-08T09:59:28.173Z,5.35
2019-01-08T10:00:28.165Z,5.43
2019-01-08T10:01:28.153Z,5.40
2019-01-08T10:02:28.142Z,5.36
2019-01-08T10:03:28.137Z,5.40
2019-01-08T10:04:28.119Z,5.28
2019-01-08T10:05:28.109Z,5.30
2019-01-08T10:06:28.098Z,5.33
2019-01-08T10:07:28.088Z,5.35
2019-01-08T10:08:28.075Z,5.28
2019-01-08T10:09:28.066Z,5.25
2019-01-08T10:10:28.057Z,5.21
2019-01-08T10:11:28.066Z,5.31
2019-01-08T10:12:28.107Z,5.28
2019-01-08T10:13:28.025Z,5.31
2019-01-08T10:14:28.012Z,5.31
2019-01-08T10:15:28.003Z,5.45
2019-01-08T10:16:27.992Z,5.40
2019-01-08T10:17:27.980Z,5.39
2019-01-08T10:18:27.970Z,5.36
2019-01-08T10:19:27.960Z,5.25
2019-01-08T10:20:27.951Z,5.40
2019-01-08T10:21:27.939Z,5.24
2019-01-08T10:22:27.966Z,5.25
2019-01-08T10:23:27.921Z,5.27
2019-01-08T10:24:27.907Z,5.25
2019-01-08T10:25:27.893Z,5.28
2019-01-08T10:26:27.884Z,5.27
2019-01-08T10:27:27.873Z,5.36
2019-01-08T10:28:27.861Z,5.36
2019-01-08T10:29:27.852Z,5.33
2019-01-08T10:30:27.843Z,5.40
2019-01-08T10:31:32.423Z,5.45
2019-01-08T10:32:28.819Z,5.38
2019-01-08T10:33:27.814Z,5.42
2019-01-08T10:34:27.799Z,5.43
2019-01-08T10:35:27.789Z,5.33
2019-01-08T10:36:27.776Z,5.35
2019-01-08T10:37:27.767Z,5.36
2019-01-08T10:38:27.756Z,5.38
2019-01-08T10:39:27.744Z,5.48
2019-01-08T10:40:27.734Z,5.31
2019-01-08T10:41:27.727Z,5.35
2019-01-08T10:42:27.725Z,5.40
2019-01-08T10:43:27.706Z,5.43
2019-01-08T10:44:27.697Z,5.39
2019-01-08T10:45:27.685Z,5.45
2019-01-08T10:46:27.670Z,5.42
2019-01-08T10:47:27.659Z,5.49
2019-01-08T10:48:27.647Z,5.51
2019-01-08T10:49:27.639Z,5.58
2019-01-08T10:50:27.627Z,5.49
2019-01-08T10:51:27.616Z,5.56
2019-01-08T10:52:27.607Z,5.64
2019-01-08T10:53:29.190Z,5.58
2019-01-08T10:54:27.584Z,5.53
2019-01-08T10:55:27.575Z,5.49
2019-01-08T10:56:27.563Z,5.58
2019-01-08T10:57:27.552Z,5.57
2019-01-08T10:58:27.541Z,5.58
2019-01-08T10:59:27.530Z,5.56
2019-01-08T11:00:27.521Z,5.56
2019-01-08T11:01:27.510Z,5.60
2019-01-08T11:02:27.509Z,5.61
2019-01-08T11:03:27.492Z,5.56
2019-01-08T11:04:27.477Z,5.63
2019-01-08T11:05:27.469Z,5.64
2019-01-08T11:06:27.455Z,5.60
2019-01-08T11:07:27.447Z,5.61
2019-01-08T11:08:27.436Z,5.58
2019-01-08T11:09:27.425Z,5.60
2019-01-08T11:10:27.416Z,5.61
2019-01-08T11:11:27.404Z,5.61
2019-01-08T11:12:27.393Z,5.65
2019-01-08T11:13:27.387Z,5.60
2019-01-08T11:14:27.403Z,5.58
2019-01-08T11:15:27.364Z,5.53
2019-01-08T11:16:27.353Z,5.54
2019-01-08T11:17:27.339Z,5.51
2019-01-08T11:18:27.330Z,5.56
2019-01-08T11:19:27.318Z,5.54
2019-01-08T11:20:27.308Z,5.48
2019-01-08T11:21:27.295Z,5.56
2019-01-08T11:22:27.284Z,5.48
2019-01-08T11:23:27.281Z,5.57
2019-01-08T11:24:27.264Z,5.49
2019-01-08T11:25:27.254Z,5.49
2019-01-08T11:26:27.250Z,5.56
2019-01-08T11:27:27.232Z,5.57
2019-01-08T11:28:27.222Z,5.56
2019-01-08T11:29:27.210Z,5.61
2019-01-08T11:30:27.198Z,5.64
2019-01-08T11:31:27.192Z,5.58
2019-01-08T11:32:27.182Z,5.60
2019-01-08T11:33:27.174Z,5.53
2019-01-08T11:34:27.160Z,5.56
2019-01-08T11:35:27.148Z,5.58
2019-01-08T11:36:27.135Z,5.54
2019-01-08T11:37:27.126Z,5.60
2019-01-08T11:38:27.116Z,5.58
2019-01-08T11:39:27.104Z,5.54
2019-01-08T11:40:27.094Z,5.49
2019-01-08T11:41:27.097Z,5.56
2019-01-08T11:42:27.071Z,5.60
2019-01-08T11:43:27.064Z,5.57
2019-01-08T11:44:27.056Z,5.58
2019-01-08T11:45:27.039Z,5.61
2019-01-08T11:46:27.027Z,5.74
2019-01-08T11:47:27.018Z,5.76
2019-01-08T11:48:27.007Z,5.79
2019-01-08T11:49:26.999Z,5.79
2019-01-08T11:50:26.987Z,5.79
2019-01-08T11:51:26.977Z,5.75
2019-01-08T11:52:26.965Z,5.72
2019-01-08T11:53:26.963Z,5.74
2019-01-08T11:54:26.945Z,5.72
2019-01-08T11:55:26.937Z,5.75
2019-01-08T11:56:26.927Z,5.74
2019-01-08T11:57:26.912Z,5.74
2019-01-08T11:58:26.900Z,5.71
2019-01-08T11:59:26.891Z,5.74
2019-01-08T12:00:26.879Z,5.74
2019-01-08T12:01:26.870Z,5.72
2019-01-08T12:02:26.860Z,5.72
2019-01-08T12:03:26.852Z,5.74
2019-01-08T12:04:26.838Z,5.61
2019-01-08T12:05:26.828Z,5.64
2019-01-08T12:06:26.820Z,5.58
2019-01-08T12:07:31.087Z,5.61
2019-01-08T12:08:26.793Z,5.60
2019-01-08T12:09:26.782Z,5.67
2019-01-08T12:10:26.771Z,5.61
2019-01-08T12:11:26.764Z,5.68
2019-01-08T12:12:26.752Z,5.61
2019-01-08T12:13:26.745Z,5.65
2019-01-08T12:14:26.732Z,5.67
2019-01-08T12:15:26.721Z,5.64
2019-01-08T12:16:26.710Z,5.63
2019-01-08T12:17:26.711Z,5.63
2019-01-08T12:18:26.691Z,5.61
2019-01-08T12:19:26.681Z,5.71
2019-01-08T12:20:26.667Z,5.68
2019-01-08T12:21:26.661Z,5.71
2019-01-08T12:22:26.649Z,5.74
2019-01-08T12:23:26.642Z,5.67
2019-01-08T12:24:26.695Z,5.61
2019-01-08T12:25:26.615Z,5.61
2019-01-08T12:26:26.600Z,5.64
2019-01-08T12:27:26.592Z,5.68
2019-01-08T12:28:26.579Z,5.68
2019-01-08T12:29:26.570Z,5.67
2019-01-08T12:30:26.558Z,5.76
2019-01-08T12:31:26.548Z,5.72
2019-01-08T12:32:26.536Z,5.83
2019-01-08T12:33:26.531Z,5.81
2019-01-08T12:34:26.516Z,5.85
2019-01-08T12:35:26.506Z,5.93
2019-01-08T12:36:26.495Z,5.86
2019-01-08T12:37:26.483Z,5.83
2019-01-08T12:38:26.545Z,5.91
2019-01-08T12:39:26.466Z,5.86
2019-01-08T12:40:26.451Z,5.86
2019-01-08T12:41:26.443Z,5.75
2019-01-08T12:42:26.431Z,5.89
2019-01-08T12:43:26.425Z,5.86
2019-01-08T12:44:26.411Z,5.86
2019-01-08T12:45:26.400Z,5.83
2019-01-08T12:46:26.386Z,5.85
2019-01-08T12:47:26.378Z,5.85
2019-01-08T12:48:26.369Z,5.85
2019-01-08T12:49:26.357Z,5.93
2019-01-08T12:50:26.346Z,5.89
2019-01-08T12:51:26.338Z,5.85
2019-01-08T12:52:26.323Z,5.81
2019-01-08T12:53:26.315Z,5.86
2019-01-08T12:54:26.304Z,5.82
2019-01-08T12:55:26.331Z,5.91
2019-01-08T12:56:26.282Z,5.91
2019-01-08T12:57:26.269Z,5.83
2019-01-08T12:58:26.260Z,5.78
2019-01-08T12:59:26.253Z,5.83
2019-01-08T13:00:26.237Z,5.86
2019-01-08T13:01:26.229Z,5.85
2019-01-08T13:02:26.217Z,5.90
2019-01-08T13:03:26.209Z,5.83
2019-01-08T13:04:26.207Z,5.85
2019-01-08T13:05:26.190Z,5.89
2019-01-08T13:06:26.173Z,5.82
2019-01-08T13:07:26.169Z,5.79
2019-01-08T13:08:26.154Z,5.81
2019-01-08T13:09:26.141Z,5.83
2019-01-08T13:10:26.132Z,5.82
2019-01-08T13:11:26.132Z,5.91
2019-01-08T13:12:26.110Z,5.89
2019-01-08T13:13:26.102Z,5.89
2019-01-08T13:14:26.089Z,5.82
2019-01-08T13:15:26.077Z,5.78
2019-01-08T13:16:26.066Z,5.81
2019-01-08T13:17:26.056Z,5.75
2019-01-08T13:18:26.045Z,5.81